sensor_id;sensor_type;location;lat;lon;timestamp;temperature;humidity
26703;DHT22;14316;51.074;3.704;2023-04-06T00:02:16;10.80;94.40
26703;DHT22;14316;51.074;3.704;2023-04-06T00:04:43;10.60;96.70
26703;DHT22;14316;51.074;3.704;2023-04-06T00:07:09;10.50;96.10
26703;DHT22;14316;51.074;3.704;2023-04-06T00:09:35;10.40;96.10
26703;DHT22;14316;51.074;3.704;2023-04-06T00:12:01;10.20;97.40
26703;DHT22;14316;51.074;3.704;2023-04-06T00:14:27;10.00;97.40
26703;DHT22;14316;51.074;3.704;2023-04-06T00:16:54;9.80;98.60
26703;DHT22;14316;51.074;3.704;2023-04-06T00:19:21;9.70;99.70
26703;DHT22;14316;51.074;3.704;2023-04-06T00:21:47;9.60;99.90
26703;DHT22;14316;51.074;3.704;2023-04-06T00:24:13;9.50;99.90
26703;DHT22;14316;51.074;3.704;2023-04-06T00:26:39;9.50;99.90
26703;DHT22;14316;51.074;3.704;2023-04-06T00:29:05;9.40;99.90
26703;DHT22;14316;51.074;3.704;2023-04-06T00:31:32;9.40;99.90
26703;DHT22;14316;51.074;3.704;2023-04-06T00:33:58;9.40;99.90
26703;DHT22;14316;51.074;3.704;2023-04-06T00:36:24;9.40;99.90
26703;DHT22;14316;51.074;3.704;2023-04-06T00:38:50;9.40;99.90
26703;DHT22;14316;51.074;3.704;2023-04-06T00:41:18;9.40;99.90
26703;DHT22;14316;51.074;3.704;2023-04-06T00:43:44;9.40;99.90
26703;DHT22;14316;51.074;3.704;2023-04-06T00:46:10;9.30;99.90
26703;DHT22;14316;51.074;3.704;2023-04-06T00:48:36;9.30;99.90
26703;DHT22;14316;51.074;3.704;2023-04-06T00:51:02;9.20;99.90
26703;DHT22;14316;51.074;3.704;2023-04-06T00:53:28;9.20;99.90
26703;DHT22;14316;51.074;3.704;2023-04-06T00:55:55;9.20;99.90
26703;DHT22;14316;51.074;3.704;2023-04-06T00:58:21;9.20;99.90
26703;DHT22;14316;51.074;3.704;2023-04-06T01:00:47;9.20;99.90
26703;DHT22;14316;51.074;3.704;2023-04-06T01:03:13;9.20;99.90
26703;DHT22;14316;51.074;3.704;2023-04-06T01:05:39;9.10;99.90
26703;DHT22;14316;51.074;3.704;2023-04-06T01:08:06;9.10;99.90
26703;DHT22;14316;51.074;3.704;2023-04-06T01:10:33;9.10;99.90
26703;DHT22;14316;51.074;3.704;2023-04-06T01:12:59;9.10;99.90
26703;DHT22;14316;51.074;3.704;2023-04-06T01:15:26;9.10;99.90
26703;DHT22;14316;51.074;3.704;2023-04-06T01:17:52;9.10;99.90
26703;DHT22;14316;51.074;3.704;2023-04-06T01:20:19;9.10;99.90
26703;DHT22;14316;51.074;3.704;2023-04-06T01:22:44;9.00;99.90
26703;DHT22;14316;51.074;3.704;2023-04-06T01:25:11;9.00;99.90
26703;DHT22;14316;51.074;3.704;2023-04-06T01:27:37;8.90;99.90
26703;DHT22;14316;51.074;3.704;2023-04-06T01:30:03;8.90;99.90
26703;DHT22;14316;51.074;3.704;2023-04-06T01:32:30;8.90;99.90
26703;DHT22;14316;51.074;3.704;2023-04-06T01:34:56;8.90;99.90
26703;DHT22;14316;51.074;3.704;2023-04-06T01:37:22;8.90;99.90
26703;DHT22;14316;51.074;3.704;2023-04-06T01:39:48;8.90;99.90
26703;DHT22;14316;51.074;3.704;2023-04-06T01:42:15;8.90;99.90
26703;DHT22;14316;51.074;3.704;2023-04-06T01:44:41;8.90;99.90
26703;DHT22;14316;51.074;3.704;2023-04-06T01:47:06;9.00;99.90
26703;DHT22;14316;51.074;3.704;2023-04-06T01:49:32;9.00;99.90
26703;DHT22;14316;51.074;3.704;2023-04-06T01:51:59;9.00;99.90
26703;DHT22;14316;51.074;3.704;2023-04-06T01:54:25;9.00;99.90
26703;DHT22;14316;51.074;3.704;2023-04-06T01:56:52;9.10;99.90
26703;DHT22;14316;51.074;3.704;2023-04-06T01:59:18;9.10;99.90
26703;DHT22;14316;51.074;3.704;2023-04-06T02:01:44;9.10;99.90
26703;DHT22;14316;51.074;3.704;2023-04-06T02:04:10;9.00;99.90
26703;DHT22;14316;51.074;3.704;2023-04-06T02:06:37;8.90;99.90
26703;DHT22;14316;51.074;3.704;2023-04-06T02:09:03;8.90;99.90
26703;DHT22;14316;51.074;3.704;2023-04-06T02:11:29;8.70;99.90
26703;DHT22;14316;51.074;3.704;2023-04-06T02:13:56;8.60;99.90
26703;DHT22;14316;51.074;3.704;2023-04-06T02:16:22;8.60;99.90
26703;DHT22;14316;51.074;3.704;2023-04-06T02:18:49;8.60;99.90
26703;DHT22;14316;51.074;3.704;2023-04-06T02:21:16;8.50;99.90
26703;DHT22;14316;51.074;3.704;2023-04-06T02:23:46;8.50;99.90
26703;DHT22;14316;51.074;3.704;2023-04-06T02:26:13;8.50;99.90
26703;DHT22;14316;51.074;3.704;2023-04-06T02:28:39;8.50;99.90
26703;DHT22;14316;51.074;3.704;2023-04-06T02:31:05;8.60;99.90
26703;DHT22;14316;51.074;3.704;2023-04-06T02:33:31;8.50;99.90
26703;DHT22;14316;51.074;3.704;2023-04-06T02:35:57;8.50;99.90
26703;DHT22;14316;51.074;3.704;2023-04-06T02:38:23;8.50;99.90
26703;DHT22;14316;51.074;3.704;2023-04-06T02:40:49;8.40;99.90
26703;DHT22;14316;51.074;3.704;2023-04-06T02:43:16;8.40;99.90
26703;DHT22;14316;51.074;3.704;2023-04-06T02:45:42;8.40;99.90
26703;DHT22;14316;51.074;3.704;2023-04-06T02:48:08;8.40;99.90
26703;DHT22;14316;51.074;3.704;2023-04-06T02:50:34;8.40;99.90
26703;DHT22;14316;51.074;3.704;2023-04-06T02:53:00;8.50;99.90
26703;DHT22;14316;51.074;3.704;2023-04-06T02:55:26;8.50;99.90
26703;DHT22;14316;51.074;3.704;2023-04-06T02:57:52;8.50;99.90
26703;DHT22;14316;51.074;3.704;2023-04-06T03:00:19;8.40;99.90
26703;DHT22;14316;51.074;3.704;2023-04-06T03:02:45;8.30;99.90
26703;DHT22;14316;51.074;3.704;2023-04-06T03:05:11;8.30;99.90
26703;DHT22;14316;51.074;3.704;2023-04-06T03:07:37;8.30;99.90
26703;DHT22;14316;51.074;3.704;2023-04-06T03:10:04;8.30;99.90
26703;DHT22;14316;51.074;3.704;2023-04-06T03:12:30;8.30;99.90
26703;DHT22;14316;51.074;3.704;2023-04-06T03:14:56;8.30;99.90
26703;DHT22;14316;51.074;3.704;2023-04-06T03:17:22;8.30;99.90
26703;DHT22;14316;51.074;3.704;2023-04-06T03:19:48;8.20;99.90
26703;DHT22;14316;51.074;3.704;2023-04-06T03:22:15;8.20;99.90
26703;DHT22;14316;51.074;3.704;2023-04-06T03:24:41;8.10;99.90
26703;DHT22;14316;51.074;3.704;2023-04-06T03:27:07;8.10;99.90
26703;DHT22;14316;51.074;3.704;2023-04-06T03:29:32;8.10;99.90
26703;DHT22;14316;51.074;3.704;2023-04-06T03:31:59;8.10;99.90
26703;DHT22;14316;51.074;3.704;2023-04-06T03:34:25;8.00;99.90
26703;DHT22;14316;51.074;3.704;2023-04-06T03:36:51;8.00;99.90
26703;DHT22;14316;51.074;3.704;2023-04-06T03:39:17;8.10;99.90
26703;DHT22;14316;51.074;3.704;2023-04-06T03:41:43;8.10;99.90
26703;DHT22;14316;51.074;3.704;2023-04-06T03:44:10;8.20;99.90
26703;DHT22;14316;51.074;3.704;2023-04-06T03:46:37;8.20;99.90
26703;DHT22;14316;51.074;3.704;2023-04-06T03:49:02;8.10;99.90
26703;DHT22;14316;51.074;3.704;2023-04-06T03:51:28;8.10;99.90
26703;DHT22;14316;51.074;3.704;2023-04-06T03:53:54;8.10;99.90
26703;DHT22;14316;51.074;3.704;2023-04-06T03:56:21;8.10;99.90
26703;DHT22;14316;51.074;3.704;2023-04-06T03:58:47;8.10;99.90
26703;DHT22;14316;51.074;3.704;2023-04-06T04:01:17;8.10;99.90
26703;DHT22;14316;51.074;3.704;2023-04-06T04:03:43;8.10;99.90
26703;DHT22;14316;51.074;3.704;2023-04-06T04:06:09;8.10;99.90
26703;DHT22;14316;51.074;3.704;2023-04-06T04:08:35;8.00;99.90
26703;DHT22;14316;51.074;3.704;2023-04-06T04:11:02;8.10;99.90
26703;DHT22;14316;51.074;3.704;2023-04-06T04:13:27;8.10;99.90
26703;DHT22;14316;51.074;3.704;2023-04-06T04:15:53;8.10;99.90
26703;DHT22;14316;51.074;3.704;2023-04-06T04:18:19;8.10;99.90
26703;DHT22;14316;51.074;3.704;2023-04-06T04:20:46;8.10;99.90
26703;DHT22;14316;51.074;3.704;2023-04-06T04:23:12;8.20;99.90
26703;DHT22;14316;51.074;3.704;2023-04-06T04:25:38;8.10;99.90
26703;DHT22;14316;51.074;3.704;2023-04-06T04:28:04;8.10;99.90
26703;DHT22;14316;51.074;3.704;2023-04-06T04:30:31;8.00;99.90
26703;DHT22;14316;51.074;3.704;2023-04-06T04:32:57;8.00;99.90
26703;DHT22;14316;51.074;3.704;2023-04-06T04:35:23;7.90;99.90
26703;DHT22;14316;51.074;3.704;2023-04-06T04:37:50;8.00;99.90
26703;DHT22;14316;51.074;3.704;2023-04-06T04:40:16;8.00;99.90
26703;DHT22;14316;51.074;3.704;2023-04-06T04:42:42;8.10;99.90
26703;DHT22;14316;51.074;3.704;2023-04-06T04:45:09;8.10;99.90
26703;DHT22;14316;51.074;3.704;2023-04-06T04:47:35;8.10;99.90
26703;DHT22;14316;51.074;3.704;2023-04-06T04:50:01;8.10;99.90
26703;DHT22;14316;51.074;3.704;2023-04-06T04:52:27;8.10;99.90
26703;DHT22;14316;51.074;3.704;2023-04-06T04:54:53;8.10;99.90
26703;DHT22;14316;51.074;3.704;2023-04-06T04:57:20;8.10;99.90
26703;DHT22;14316;51.074;3.704;2023-04-06T04:59:47;8.00;99.90
26703;DHT22;14316;51.074;3.704;2023-04-06T05:02:14;8.10;99.90
26703;DHT22;14316;51.074;3.704;2023-04-06T05:04:40;8.10;99.90
26703;DHT22;14316;51.074;3.704;2023-04-06T05:07:07;8.10;99.90
26703;DHT22;14316;51.074;3.704;2023-04-06T05:09:34;8.00;99.90
26703;DHT22;14316;51.074;3.704;2023-04-06T05:12:01;7.90;99.90
26703;DHT22;14316;51.074;3.704;2023-04-06T05:14:28;7.80;99.90
26703;DHT22;14316;51.074;3.704;2023-04-06T05:16:54;7.80;99.90
26703;DHT22;14316;51.074;3.704;2023-04-06T05:19:20;7.70;99.90
26703;DHT22;14316;51.074;3.704;2023-04-06T05:21:46;7.70;99.90
26703;DHT22;14316;51.074;3.704;2023-04-06T05:24:12;7.70;99.90
26703;DHT22;14316;51.074;3.704;2023-04-06T05:26:38;7.60;99.90
26703;DHT22;14316;51.074;3.704;2023-04-06T05:29:04;7.70;99.90
26703;DHT22;14316;51.074;3.704;2023-04-06T05:31:30;7.70;99.90
26703;DHT22;14316;51.074;3.704;2023-04-06T05:33:57;7.70;99.90
26703;DHT22;14316;51.074;3.704;2023-04-06T05:36:23;7.70;99.90
26703;DHT22;14316;51.074;3.704;2023-04-06T05:38:50;7.70;99.90
26703;DHT22;14316;51.074;3.704;2023-04-06T05:41:18;7.80;99.90
26703;DHT22;14316;51.074;3.704;2023-04-06T05:43:44;7.70;99.90
26703;DHT22;14316;51.074;3.704;2023-04-06T05:46:10;7.80;99.90
26703;DHT22;14316;51.074;3.704;2023-04-06T05:48:36;7.90;99.90
26703;DHT22;14316;51.074;3.704;2023-04-06T05:51:02;7.90;99.90
26703;DHT22;14316;51.074;3.704;2023-04-06T05:53:32;8.00;99.90
26703;DHT22;14316;51.074;3.704;2023-04-06T05:56:01;8.00;99.90
26703;DHT22;14316;51.074;3.704;2023-04-06T05:58:28;8.20;99.90
26703;DHT22;14316;51.074;3.704;2023-04-06T06:01:01;8.30;99.90
26703;DHT22;14316;51.074;3.704;2023-04-06T06:03:28;8.40;99.90
26703;DHT22;14316;51.074;3.704;2023-04-06T06:06:02;8.60;99.90
26703;DHT22;14316;51.074;3.704;2023-04-06T06:08:29;8.70;99.90
26703;DHT22;14316;51.074;3.704;2023-04-06T06:10:56;8.80;99.90
26703;DHT22;14316;51.074;3.704;2023-04-06T06:13:22;8.80;99.90
26703;DHT22;14316;51.074;3.704;2023-04-06T06:15:49;8.80;99.90
26703;DHT22;14316;51.074;3.704;2023-04-06T06:18:15;8.90;99.90
26703;DHT22;14316;51.074;3.704;2023-04-06T06:20:41;8.90;99.90
26703;DHT22;14316;51.074;3.704;2023-04-06T06:23:07;9.00;99.90
26703;DHT22;14316;51.074;3.704;2023-04-06T06:25:34;9.00;99.90
26703;DHT22;14316;51.074;3.704;2023-04-06T06:28:00;9.10;99.90
26703;DHT22;14316;51.074;3.704;2023-04-06T06:30:26;8.90;99.90
26703;DHT22;14316;51.074;3.704;2023-04-06T06:32:52;8.80;99.90
26703;DHT22;14316;51.074;3.704;2023-04-06T06:35:18;8.60;99.90
26703;DHT22;14316;51.074;3.704;2023-04-06T06:37:44;8.70;99.90
26703;DHT22;14316;51.074;3.704;2023-04-06T06:40:10;8.70;99.90
26703;DHT22;14316;51.074;3.704;2023-04-06T06:42:38;8.80;99.90
26703;DHT22;14316;51.074;3.704;2023-04-06T06:45:06;8.60;99.90
26703;DHT22;14316;51.074;3.704;2023-04-06T06:47:32;8.80;99.90
26703;DHT22;14316;51.074;3.704;2023-04-06T06:49:58;8.90;99.90
26703;DHT22;14316;51.074;3.704;2023-04-06T06:52:24;9.10;99.90
26703;DHT22;14316;51.074;3.704;2023-04-06T06:54:50;9.20;99.90
26703;DHT22;14316;51.074;3.704;2023-04-06T06:57:16;9.20;99.90
26703;DHT22;14316;51.074;3.704;2023-04-06T06:59:42;9.30;99.90
26703;DHT22;14316;51.074;3.704;2023-04-06T07:02:09;9.30;99.90
26703;DHT22;14316;51.074;3.704;2023-04-06T07:04:35;9.40;99.90
26703;DHT22;14316;51.074;3.704;2023-04-06T07:07:01;9.70;99.90
26703;DHT22;14316;51.074;3.704;2023-04-06T07:09:27;9.90;99.90
26703;DHT22;14316;51.074;3.704;2023-04-06T07:11:53;9.90;99.90
26703;DHT22;14316;51.074;3.704;2023-04-06T07:14:20;9.90;99.90
26703;DHT22;14316;51.074;3.704;2023-04-06T07:16:45;10.00;99.90
26703;DHT22;14316;51.074;3.704;2023-04-06T07:19:12;9.70;99.90
26703;DHT22;14316;51.074;3.704;2023-04-06T07:21:38;9.90;99.90
26703;DHT22;14316;51.074;3.704;2023-04-06T07:24:04;10.00;99.90
26703;DHT22;14316;51.074;3.704;2023-04-06T07:26:30;10.00;99.90
26703;DHT22;14316;51.074;3.704;2023-04-06T07:28:56;10.10;99.90
26703;DHT22;14316;51.074;3.704;2023-04-06T07:31:22;10.10;99.90
26703;DHT22;14316;51.074;3.704;2023-04-06T07:33:48;9.90;99.90
26703;DHT22;14316;51.074;3.704;2023-04-06T07:36:15;9.70;99.90
26703;DHT22;14316;51.074;3.704;2023-04-06T07:38:41;9.60;99.90
26703;DHT22;14316;51.074;3.704;2023-04-06T07:41:07;9.70;99.90
26703;DHT22;14316;51.074;3.704;2023-04-06T07:43:33;9.70;99.90
26703;DHT22;14316;51.074;3.704;2023-04-06T07:45:59;9.60;99.90
26703;DHT22;14316;51.074;3.704;2023-04-06T07:48:26;9.30;99.90
26703;DHT22;14316;51.074;3.704;2023-04-06T07:51:03;9.40;99.90
26703;DHT22;14316;51.074;3.704;2023-04-06T07:53:29;9.50;99.90
26703;DHT22;14316;51.074;3.704;2023-04-06T07:55:57;9.30;99.90
26703;DHT22;14316;51.074;3.704;2023-04-06T07:58:23;9.40;99.90
26703;DHT22;14316;51.074;3.704;2023-04-06T08:00:49;9.30;99.90
26703;DHT22;14316;51.074;3.704;2023-04-06T08:03:16;9.40;99.90
26703;DHT22;14316;51.074;3.704;2023-04-06T08:05:42;9.40;99.90
26703;DHT22;14316;51.074;3.704;2023-04-06T08:08:08;9.60;99.90
26703;DHT22;14316;51.074;3.704;2023-04-06T08:10:35;9.50;99.90
26703;DHT22;14316;51.074;3.704;2023-04-06T08:13:01;9.20;99.90
26703;DHT22;14316;51.074;3.704;2023-04-06T08:15:27;9.30;99.90
26703;DHT22;14316;51.074;3.704;2023-04-06T08:17:53;9.40;99.90
26703;DHT22;14316;51.074;3.704;2023-04-06T08:20:22;9.50;99.90
26703;DHT22;14316;51.074;3.704;2023-04-06T08:22:48;9.30;99.90
26703;DHT22;14316;51.074;3.704;2023-04-06T08:25:15;9.30;99.90
26703;DHT22;14316;51.074;3.704;2023-04-06T08:27:41;9.10;99.90
26703;DHT22;14316;51.074;3.704;2023-04-06T08:30:07;9.20;99.90
26703;DHT22;14316;51.074;3.704;2023-04-06T08:32:33;9.30;99.90
26703;DHT22;14316;51.074;3.704;2023-04-06T08:34:59;9.50;99.90
26703;DHT22;14316;51.074;3.704;2023-04-06T08:37:26;9.40;99.90
26703;DHT22;14316;51.074;3.704;2023-04-06T08:39:52;9.50;99.90
26703;DHT22;14316;51.074;3.704;2023-04-06T08:42:22;9.70;99.90
26703;DHT22;14316;51.074;3.704;2023-04-06T08:44:50;9.50;99.90
26703;DHT22;14316;51.074;3.704;2023-04-06T08:47:18;9.40;99.90
26703;DHT22;14316;51.074;3.704;2023-04-06T08:49:45;9.60;99.90
26703;DHT22;14316;51.074;3.704;2023-04-06T08:52:12;9.30;99.90
26703;DHT22;14316;51.074;3.704;2023-04-06T08:54:38;9.20;99.90
26703;DHT22;14316;51.074;3.704;2023-04-06T08:57:04;9.20;99.90
26703;DHT22;14316;51.074;3.704;2023-04-06T08:59:32;9.20;99.90
26703;DHT22;14316;51.074;3.704;2023-04-06T09:01:59;9.30;99.90
26703;DHT22;14316;51.074;3.704;2023-04-06T09:04:27;9.20;99.90
26703;DHT22;14316;51.074;3.704;2023-04-06T09:06:53;9.40;99.90
26703;DHT22;14316;51.074;3.704;2023-04-06T09:09:19;9.20;99.90
26703;DHT22;14316;51.074;3.704;2023-04-06T09:11:49;9.40;99.90
26703;DHT22;14316;51.074;3.704;2023-04-06T09:14:17;9.40;99.90
26703;DHT22;14316;51.074;3.704;2023-04-06T09:16:44;9.50;99.90
26703;DHT22;14316;51.074;3.704;2023-04-06T09:19:11;9.80;99.90
26703;DHT22;14316;51.074;3.704;2023-04-06T09:21:38;9.70;99.90
26703;DHT22;14316;51.074;3.704;2023-04-06T09:24:08;9.70;99.90
26703;DHT22;14316;51.074;3.704;2023-04-06T09:26:47;9.30;99.90
26703;DHT22;14316;51.074;3.704;2023-04-06T09:29:24;9.20;99.90
26703;DHT22;14316;51.074;3.704;2023-04-06T09:32:02;9.10;99.90
26703;DHT22;14316;51.074;3.704;2023-04-06T09:34:28;9.00;99.90
26703;DHT22;14316;51.074;3.704;2023-04-06T09:36:54;9.10;99.90
26703;DHT22;14316;51.074;3.704;2023-04-06T09:39:22;9.10;99.90
26703;DHT22;14316;51.074;3.704;2023-04-06T09:41:51;9.20;99.90
26703;DHT22;14316;51.074;3.704;2023-04-06T09:44:17;9.40;99.90
26703;DHT22;14316;51.074;3.704;2023-04-06T09:46:44;9.40;99.90
26703;DHT22;14316;51.074;3.704;2023-04-06T09:49:11;9.50;99.90
26703;DHT22;14316;51.074;3.704;2023-04-06T09:51:40;9.30;99.90
26703;DHT22;14316;51.074;3.704;2023-04-06T09:54:07;9.10;99.90
26703;DHT22;14316;51.074;3.704;2023-04-06T10:02:06;9.60;99.90
26703;DHT22;14316;51.074;3.704;2023-04-06T10:04:43;9.70;99.90
26703;DHT22;14316;51.074;3.704;2023-04-06T10:07:10;9.60;99.90
26703;DHT22;14316;51.074;3.704;2023-04-06T10:09:37;9.50;99.90
26703;DHT22;14316;51.074;3.704;2023-04-06T10:12:05;9.70;99.90
26703;DHT22;14316;51.074;3.704;2023-04-06T10:14:33;9.80;99.90
26703;DHT22;14316;51.074;3.704;2023-04-06T10:17:04;9.70;99.90
26703;DHT22;14316;51.074;3.704;2023-04-06T10:19:49;9.70;99.90
26703;DHT22;14316;51.074;3.704;2023-04-06T10:22:26;9.50;99.90
26703;DHT22;14316;51.074;3.704;2023-04-06T10:24:55;9.50;99.90
26703;DHT22;14316;51.074;3.704;2023-04-06T10:27:28;9.40;99.90
26703;DHT22;14316;51.074;3.704;2023-04-06T10:30:04;9.40;99.90
26703;DHT22;14316;51.074;3.704;2023-04-06T10:32:38;9.40;99.90
26703;DHT22;14316;51.074;3.704;2023-04-06T10:35:08;9.30;99.90
26703;DHT22;14316;51.074;3.704;2023-04-06T10:40:21;9.50;99.90
26703;DHT22;14316;51.074;3.704;2023-04-06T10:42:48;9.50;99.90
26703;DHT22;14316;51.074;3.704;2023-04-06T10:45:25;9.40;99.90
26703;DHT22;14316;51.074;3.704;2023-04-06T10:47:55;9.40;99.90
26703;DHT22;14316;51.074;3.704;2023-04-06T10:50:21;9.50;99.90
26703;DHT22;14316;51.074;3.704;2023-04-06T10:52:59;9.30;99.90
26703;DHT22;14316;51.074;3.704;2023-04-06T10:55:26;9.20;99.90
26703;DHT22;14316;51.074;3.704;2023-04-06T10:57:53;9.20;99.90
26703;DHT22;14316;51.074;3.704;2023-04-06T11:00:20;9.00;99.90
26703;DHT22;14316;51.074;3.704;2023-04-06T11:02:46;9.00;99.90
26703;DHT22;14316;51.074;3.704;2023-04-06T11:05:13;9.20;99.90
26703;DHT22;14316;51.074;3.704;2023-04-06T11:07:39;9.40;99.90
26703;DHT22;14316;51.074;3.704;2023-04-06T11:10:07;9.30;99.90
26703;DHT22;14316;51.074;3.704;2023-04-06T11:12:33;9.40;99.90
26703;DHT22;14316;51.074;3.704;2023-04-06T11:15:01;9.50;99.90
26703;DHT22;14316;51.074;3.704;2023-04-06T11:17:36;9.40;99.90
26703;DHT22;14316;51.074;3.704;2023-04-06T11:20:04;9.50;99.90
26703;DHT22;14316;51.074;3.704;2023-04-06T11:22:31;9.40;99.90
26703;DHT22;14316;51.074;3.704;2023-04-06T11:25:07;9.30;99.90
26703;DHT22;14316;51.074;3.704;2023-04-06T11:27:34;9.40;99.90
26703;DHT22;14316;51.074;3.704;2023-04-06T11:30:01;9.50;99.90
26703;DHT22;14316;51.074;3.704;2023-04-06T11:32:28;9.20;99.90
26703;DHT22;14316;51.074;3.704;2023-04-06T11:34:57;9.10;99.90
26703;DHT22;14316;51.074;3.704;2023-04-06T11:37:26;9.10;99.90
26703;DHT22;14316;51.074;3.704;2023-04-06T11:39:55;9.10;99.90
26703;DHT22;14316;51.074;3.704;2023-04-06T11:42:27;9.00;99.90
26703;DHT22;14316;51.074;3.704;2023-04-06T11:45:00;8.90;99.90
26703;DHT22;14316;51.074;3.704;2023-04-06T11:47:38;8.90;99.90
26703;DHT22;14316;51.074;3.704;2023-04-06T11:50:08;8.80;99.90
26703;DHT22;14316;51.074;3.704;2023-04-06T11:52:34;8.90;99.90
26703;DHT22;14316;51.074;3.704;2023-04-06T11:55:19;9.00;99.90
26703;DHT22;14316;51.074;3.704;2023-04-06T11:57:45;8.80;99.90
26703;DHT22;14316;51.074;3.704;2023-04-06T12:00:11;9.00;99.90
26703;DHT22;14316;51.074;3.704;2023-04-06T12:02:38;9.10;99.90
26703;DHT22;14316;51.074;3.704;2023-04-06T12:05:05;9.10;99.90
26703;DHT22;14316;51.074;3.704;2023-04-06T12:07:33;9.20;99.90
26703;DHT22;14316;51.074;3.704;2023-04-06T12:10:00;9.30;99.90
26703;DHT22;14316;51.074;3.704;2023-04-06T12:12:29;9.00;99.90
26703;DHT22;14316;51.074;3.704;2023-04-06T12:14:56;9.10;99.90
26703;DHT22;14316;51.074;3.704;2023-04-06T12:17:22;9.10;99.90
26703;DHT22;14316;51.074;3.704;2023-04-06T12:19:49;9.30;99.90
26703;DHT22;14316;51.074;3.704;2023-04-06T12:22:15;9.40;99.90
26703;DHT22;14316;51.074;3.704;2023-04-06T12:24:41;9.70;99.90
26703;DHT22;14316;51.074;3.704;2023-04-06T12:27:07;9.50;99.90
26703;DHT22;14316;51.074;3.704;2023-04-06T12:29:34;9.40;99.90
26703;DHT22;14316;51.074;3.704;2023-04-06T12:32:00;9.30;99.90
26703;DHT22;14316;51.074;3.704;2023-04-06T12:34:27;9.30;99.90
26703;DHT22;14316;51.074;3.704;2023-04-06T12:36:53;9.20;99.90
26703;DHT22;14316;51.074;3.704;2023-04-06T12:39:19;9.20;99.90
26703;DHT22;14316;51.074;3.704;2023-04-06T12:41:47;9.40;99.90
26703;DHT22;14316;51.074;3.704;2023-04-06T12:44:13;9.60;99.90
26703;DHT22;14316;51.074;3.704;2023-04-06T12:46:39;9.70;99.90
26703;DHT22;14316;51.074;3.704;2023-04-06T12:49:06;9.70;99.90
26703;DHT22;14316;51.074;3.704;2023-04-06T12:51:32;9.90;99.90
26703;DHT22;14316;51.074;3.704;2023-04-06T12:53:58;9.70;99.90
26703;DHT22;14316;51.074;3.704;2023-04-06T12:56:25;9.70;99.90
26703;DHT22;14316;51.074;3.704;2023-04-06T12:58:52;9.90;99.90
26703;DHT22;14316;51.074;3.704;2023-04-06T13:01:18;10.00;99.90
26703;DHT22;14316;51.074;3.704;2023-04-06T13:03:44;10.00;99.90
26703;DHT22;14316;51.074;3.704;2023-04-06T13:06:10;10.00;99.90
26703;DHT22;14316;51.074;3.704;2023-04-06T13:08:38;10.20;99.90
26703;DHT22;14316;51.074;3.704;2023-04-06T13:11:05;10.20;99.90
26703;DHT22;14316;51.074;3.704;2023-04-06T13:13:34;10.10;99.90
26703;DHT22;14316;51.074;3.704;2023-04-06T13:16:02;10.00;99.90
26703;DHT22;14316;51.074;3.704;2023-04-06T13:18:30;10.00;99.90
26703;DHT22;14316;51.074;3.704;2023-04-06T13:20:58;9.90;99.90
26703;DHT22;14316;51.074;3.704;2023-04-06T13:23:26;10.10;99.90
26703;DHT22;14316;51.074;3.704;2023-04-06T13:26:08;10.00;99.90
26703;DHT22;14316;51.074;3.704;2023-04-06T13:28:35;10.10;99.90
26703;DHT22;14316;51.074;3.704;2023-04-06T13:31:03;10.20;99.90
26703;DHT22;14316;51.074;3.704;2023-04-06T13:33:30;10.50;99.90
26703;DHT22;14316;51.074;3.704;2023-04-06T13:35:58;10.60;99.90
26703;DHT22;14316;51.074;3.704;2023-04-06T13:38:24;10.50;99.90
26703;DHT22;14316;51.074;3.704;2023-04-06T13:40:50;10.40;99.90
26703;DHT22;14316;51.074;3.704;2023-04-06T13:43:16;10.50;99.90
26703;DHT22;14316;51.074;3.704;2023-04-06T13:45:53;10.40;99.90
26703;DHT22;14316;51.074;3.704;2023-04-06T13:48:21;10.20;99.90
26703;DHT22;14316;51.074;3.704;2023-04-06T13:50:47;10.10;99.90
26703;DHT22;14316;51.074;3.704;2023-04-06T13:53:13;10.10;99.90
26703;DHT22;14316;51.074;3.704;2023-04-06T13:55:39;10.20;99.90
26703;DHT22;14316;51.074;3.704;2023-04-06T13:58:05;10.20;99.90
26703;DHT22;14316;51.074;3.704;2023-04-06T14:00:31;10.20;99.90
26703;DHT22;14316;51.074;3.704;2023-04-06T14:02:57;10.40;99.90
26703;DHT22;14316;51.074;3.704;2023-04-06T14:05:23;10.50;99.90
26703;DHT22;14316;51.074;3.704;2023-04-06T14:07:50;10.10;99.90
26703;DHT22;14316;51.074;3.704;2023-04-06T14:10:16;10.20;99.90
26703;DHT22;14316;51.074;3.704;2023-04-06T14:12:43;10.20;99.90
26703;DHT22;14316;51.074;3.704;2023-04-06T14:15:11;10.30;99.90
26703;DHT22;14316;51.074;3.704;2023-04-06T14:17:37;10.40;99.90
26703;DHT22;14316;51.074;3.704;2023-04-06T14:20:07;10.30;99.90
26703;DHT22;14316;51.074;3.704;2023-04-06T14:22:39;10.10;99.90
26703;DHT22;14316;51.074;3.704;2023-04-06T14:25:07;10.10;99.90
26703;DHT22;14316;51.074;3.704;2023-04-06T14:27:33;10.10;99.90
26703;DHT22;14316;51.074;3.704;2023-04-06T14:29:59;10.10;99.90
26703;DHT22;14316;51.074;3.704;2023-04-06T14:32:25;10.20;99.90
26703;DHT22;14316;51.074;3.704;2023-04-06T14:34:52;10.40;99.90
26703;DHT22;14316;51.074;3.704;2023-04-06T14:37:18;10.50;99.90
26703;DHT22;14316;51.074;3.704;2023-04-06T14:39:44;10.30;99.90
26703;DHT22;14316;51.074;3.704;2023-04-06T14:42:10;10.30;99.90
26703;DHT22;14316;51.074;3.704;2023-04-06T14:44:36;10.30;99.90
26703;DHT22;14316;51.074;3.704;2023-04-06T14:47:03;10.30;99.90
26703;DHT22;14316;51.074;3.704;2023-04-06T14:49:32;10.30;99.90
26703;DHT22;14316;51.074;3.704;2023-04-06T14:51:59;10.30;99.90
26703;DHT22;14316;51.074;3.704;2023-04-06T14:54:25;10.30;99.90
26703;DHT22;14316;51.074;3.704;2023-04-06T14:56:51;10.40;99.90
26703;DHT22;14316;51.074;3.704;2023-04-06T14:59:18;10.40;99.90
26703;DHT22;14316;51.074;3.704;2023-04-06T15:01:44;10.40;99.90
26703;DHT22;14316;51.074;3.704;2023-04-06T15:04:10;10.40;99.90
26703;DHT22;14316;51.074;3.704;2023-04-06T15:06:36;10.50;99.90
26703;DHT22;14316;51.074;3.704;2023-04-06T15:09:02;10.50;99.90
26703;DHT22;14316;51.074;3.704;2023-04-06T15:11:29;10.40;99.90
26703;DHT22;14316;51.074;3.704;2023-04-06T15:13:55;10.40;99.90
26703;DHT22;14316;51.074;3.704;2023-04-06T15:16:21;10.30;99.90
26703;DHT22;14316;51.074;3.704;2023-04-06T15:18:47;10.60;99.90
26703;DHT22;14316;51.074;3.704;2023-04-06T15:21:13;10.70;99.90
26703;DHT22;14316;51.074;3.704;2023-04-06T15:23:39;10.70;99.90
26703;DHT22;14316;51.074;3.704;2023-04-06T15:26:06;10.80;99.90
26703;DHT22;14316;51.074;3.704;2023-04-06T15:28:32;10.90;99.90
26703;DHT22;14316;51.074;3.704;2023-04-06T15:30:58;10.90;99.90
26703;DHT22;14316;51.074;3.704;2023-04-06T15:33:24;10.90;99.90
26703;DHT22;14316;51.074;3.704;2023-04-06T15:35:50;10.90;99.90
26703;DHT22;14316;51.074;3.704;2023-04-06T15:38:17;11.00;99.90
26703;DHT22;14316;51.074;3.704;2023-04-06T15:40:47;11.00;99.90
26703;DHT22;14316;51.074;3.704;2023-04-06T15:43:14;10.60;99.90
26703;DHT22;14316;51.074;3.704;2023-04-06T15:45:40;10.50;99.90
26703;DHT22;14316;51.074;3.704;2023-04-06T15:48:07;10.40;99.90
26703;DHT22;14316;51.074;3.704;2023-04-06T15:50:34;10.40;99.90